createdAt,value
2023-02-24T00:00:47.326Z,110.97
2023-02-24T00:03:16.904Z,91.65
2023-02-24T00:05:49.926Z,94.93
2023-02-24T00:08:19.679Z,100.30
2023-02-24T00:10:49.651Z,110.20
2023-02-24T00:13:22.379Z,112.15
2023-02-24T00:16:05.072Z,112.15
2023-02-24T00:18:33.968Z,103.18
2023-02-24T00:21:10.568Z,101.30
2023-02-24T00:23:41.411Z,84.40
2023-02-24T00:26:13.152Z,99.15
2023-02-24T00:28:43.877Z,108.82
2023-02-24T00:31:17.340Z,98.07
2023-02-24T00:33:48.001Z,102.00
2023-02-24T00:38:55.676Z,107.60
2023-02-24T00:41:29.878Z,101.60
2023-02-24T00:44:06.121Z,100.03
2023-02-24T00:46:39.967Z,102.47
2023-02-24T00:49:17.158Z,101.88
2023-02-24T00:51:51.247Z,98.10
2023-02-24T00:54:20.013Z,99.07
2023-02-24T00:56:51.628Z,100.13
2023-02-24T00:59:20.798Z,90.53
2023-02-24T01:01:52.219Z,95.60
2023-02-24T01:04:22.641Z,102.75
2023-02-24T01:07:01.411Z,101.40
2023-02-24T01:09:32.441Z,104.70
2023-02-24T01:12:17.844Z,101.97
2023-02-24T01:14:48.248Z,110.90
2023-02-24T01:17:21.363Z,99.65
2023-02-24T01:19:50.659Z,100.97
2023-02-24T01:22:21.790Z,108.15
2023-02-24T01:24:51.812Z,103.20
2023-02-24T01:27:22.715Z,106.75
2023-02-24T01:29:51.653Z,91.32
2023-02-24T01:32:25.363Z,89.75
2023-02-24T01:34:55.894Z,101.15
2023-02-24T01:37:27.183Z,89.28
2023-02-24T01:39:55.716Z,103.75
2023-02-24T01:42:25.519Z,108.18
2023-02-24T01:45:12.645Z,101.00
2023-02-24T01:47:44.989Z,100.32
2023-02-24T01:50:15.674Z,105.82
2023-02-24T01:52:47.946Z,107.50
2023-02-24T01:55:23.958Z,102.75
2023-02-24T01:57:55.295Z,100.35
2023-02-24T02:00:38.272Z,107.88
2023-02-24T02:03:19.935Z,109.65
2023-02-24T02:05:49.095Z,109.13
2023-02-24T02:08:24.884Z,100.53
2023-02-24T02:10:58.863Z,107.03
2023-02-24T02:13:30.461Z,101.28
2023-02-24T02:16:30.199Z,93.10
2023-02-24T02:19:26.791Z,107.05
2023-02-24T02:22:08.483Z,98.18
2023-02-24T02:24:50.013Z,104.70
2023-02-24T02:27:41.347Z,105.47
2023-02-24T02:30:48.737Z,107.88
2023-02-24T02:34:19.556Z,108.22
2023-02-24T02:36:58.569Z,109.03
2023-02-24T02:39:40.624Z,92.90
2023-02-24T02:42:15.174Z,104.72
2023-02-24T02:44:57.030Z,105.55
2023-02-24T02:47:32.900Z,105.43
2023-02-24T02:50:11.731Z,108.45
2023-02-24T02:52:52.069Z,109.15
2023-02-24T02:55:26.919Z,111.43
2023-02-24T02:57:57.939Z,108.95
2023-02-24T03:00:35.187Z,111.45
2023-02-24T03:03:12.672Z,107.03
2023-02-24T03:05:49.114Z,111.88
2023-02-24T03:08:27.928Z,109.22
2023-02-24T03:11:01.268Z,108.85
2023-02-24T03:13:39.348Z,107.75
2023-02-24T03:16:12.013Z,97.60
2023-02-24T03:18:52.040Z,104.90
2023-02-24T03:21:33.005Z,108.95
2023-02-24T03:24:06.653Z,104.30
2023-02-24T03:26:44.183Z,112.30
2023-02-24T03:29:25.197Z,106.70
2023-02-24T03:32:02.196Z,88.90
2023-02-24T03:34:42.760Z,87.53
2023-02-24T03:37:11.656Z,97.20
2023-02-24T03:39:43.416Z,96.28
2023-02-24T03:42:21.888Z,92.40
2023-02-24T03:44:53.843Z,93.93
2023-02-24T03:47:22.677Z,86.28
2023-02-24T03:49:51.356Z,111.40
2023-02-24T03:52:34.144Z,102.72
2023-02-24T03:55:24.153Z,95.57
2023-02-24T03:58:12.795Z,96.53
2023-02-24T04:00:55.629Z,105.07
2023-02-24T04:03:34.439Z,108.55
2023-02-24T04:06:24.927Z,107.78
2023-02-24T04:09:05.748Z,108.88
2023-02-24T04:11:48.852Z,111.20
2023-02-24T04:14:25.481Z,109.40
2023-02-24T04:17:01.134Z,109.50
2023-02-24T04:19:38.566Z,109.30
2023-02-24T04:22:11.166Z,109.85
2023-02-24T04:24:45.396Z,109.88
2023-02-24T04:27:17.687Z,110.13
2023-02-24T04:29:53.016Z,109.88
2023-02-24T04:32:28.327Z,107.90
2023-02-24T04:35:05.728Z,103.13
2023-02-24T04:37:38.582Z,107.93
2023-02-24T04:40:12.356Z,99.32
2023-02-24T04:42:48.870Z,108.32
2023-02-24T04:45:21.718Z,107.35
2023-02-24T04:47:51.417Z,108.70
2023-02-24T04:50:24.105Z,107.65
2023-02-24T04:52:55.947Z,109.22
2023-02-24T04:55:29.596Z,109.72
2023-02-24T04:58:01.794Z,108.20
2023-02-24T05:03:09.089Z,109.00
2023-02-24T05:05:37.876Z,110.63
2023-02-24T05:08:09.764Z,105.63
2023-02-24T05:10:40.575Z,108.00
2023-02-24T05:13:17.650Z,99.13
2023-02-24T05:15:55.255Z,105.97
2023-02-24T05:18:31.440Z,104.60
2023-02-24T05:21:23.098Z,103.78
2023-02-24T05:23:55.678Z,98.70
2023-02-24T05:26:25.658Z,94.50
2023-02-24T05:28:59.835Z,96.30
2023-02-24T05:31:32.085Z,96.03
2023-02-24T05:34:03.889Z,99.38
2023-02-24T05:36:35.393Z,101.88
2023-02-24T05:39:08.778Z,93.82
2023-02-24T05:41:42.266Z,94.55
2023-02-24T05:44:17.738Z,92.82
2023-02-24T05:46:49.848Z,92.10
2023-02-24T05:49:23.415Z,92.60
2023-02-24T05:51:55.731Z,93.95
2023-02-24T05:54:30.961Z,93.07
2023-02-24T05:57:01.523Z,94.97
2023-02-24T05:59:34.079Z,95.07
2023-02-24T06:02:07.120Z,95.25
2023-02-24T06:04:47.729Z,97.53
2023-02-24T06:07:20.105Z,93.40
2023-02-24T06:09:53.650Z,100.10
2023-02-24T06:12:26.134Z,95.03
2023-02-24T06:14:59.346Z,94.75
2023-02-24T06:17:29.759Z,100.00
2023-02-24T06:20:00.037Z,101.88
2023-02-24T06:22:28.782Z,93.93
2023-02-24T06:24:57.327Z,95.20
2023-02-24T06:27:26.838Z,96.20
2023-02-24T06:29:58.789Z,97.18
2023-02-24T06:32:28.091Z,102.32
2023-02-24T06:35:00.567Z,97.32
2023-02-24T06:37:29.949Z,100.37
2023-02-24T06:40:01.069Z,98.43
2023-02-24T06:42:29.830Z,100.85
2023-02-24T06:45:01.038Z,100.65
2023-02-24T06:47:29.585Z,95.40
2023-02-24T06:49:59.398Z,95.72
2023-02-24T06:52:28.426Z,93.43
2023-02-24T06:54:58.640Z,99.40
2023-02-24T06:57:29.066Z,94.63
2023-02-24T07:00:00.247Z,105.50
2023-02-24T07:02:39.495Z,107.38
2023-02-24T07:05:15.680Z,105.93
2023-02-24T07:07:46.062Z,103.10
2023-02-24T07:10:18.169Z,106.43
2023-02-24T07:12:46.391Z,108.72
2023-02-24T07:15:17.864Z,108.68
2023-02-24T07:17:48.483Z,107.90
2023-02-24T07:20:25.406Z,104.93
2023-02-24T07:22:54.777Z,100.57
2023-02-24T07:25:34.471Z,101.30
2023-02-24T07:28:03.394Z,101.53
2023-02-24T07:30:36.426Z,100.85
2023-02-24T07:33:06.591Z,102.97
2023-02-24T07:35:36.647Z,100.47
2023-02-24T07:38:06.331Z,101.97
2023-02-24T07:40:37.649Z,106.00
2023-02-24T07:43:07.422Z,100.00
2023-02-24T07:45:38.851Z,109.50
2023-02-24T07:48:11.104Z,101.80
2023-02-24T07:53:12.474Z,101.75
2023-02-24T07:55:42.992Z,109.35
2023-02-24T07:58:11.588Z,108.40
2023-02-24T08:01:00.806Z,109.63
2023-02-24T08:03:30.208Z,107.20
2023-02-24T08:06:14.165Z,104.95
2023-02-24T08:08:59.086Z,109.50
2023-02-24T08:11:35.587Z,108.97
2023-02-24T08:14:04.238Z,106.18
2023-02-24T08:16:40.705Z,102.25
2023-02-24T08:19:13.106Z,101.55
2023-02-24T08:21:47.449Z,107.18
2023-02-24T08:24:18.666Z,107.00
2023-02-24T08:27:05.506Z,105.25
2023-02-24T08:29:40.385Z,107.60
2023-02-24T08:32:12.896Z,107.75
2023-02-24T08:34:44.297Z,108.90
2023-02-24T08:37:15.711Z,108.78
2023-02-24T08:39:46.296Z,99.50
2023-02-24T08:42:14.789Z,108.18
2023-02-24T08:44:44.417Z,107.63
2023-02-24T08:47:20.992Z,108.25
2023-02-24T08:49:53.794Z,108.78
2023-02-24T08:52:22.158Z,106.28
2023-02-24T08:54:50.350Z,107.85
2023-02-24T08:57:20.423Z,108.22
2023-02-24T08:59:51.081Z,107.90
2023-02-24T09:02:28.635Z,108.97
2023-02-24T09:05:04.806Z,107.82
2023-02-24T09:07:40.669Z,107.10
2023-02-24T09:10:18.935Z,107.53
2023-02-24T09:12:49.419Z,103.50
2023-02-24T09:15:21.840Z,95.22
2023-02-24T09:18:01.452Z,100.27
2023-02-24T09:20:53.999Z,103.57
2023-02-24T09:23:29.940Z,106.82
2023-02-24T09:26:11.021Z,100.82
2023-02-24T09:28:48.635Z,105.80
2023-02-24T09:31:18.158Z,102.38
2023-02-24T09:33:51.248Z,100.38
2023-02-24T09:36:29.080Z,90.97
2023-02-24T09:39:14.793Z,95.43
2023-02-24T09:41:58.099Z,92.18
2023-02-24T09:44:33.427Z,91.13
2023-02-24T09:47:14.078Z,98.07
2023-02-24T09:49:56.335Z,95.85
2023-02-24T09:52:40.883Z,101.05
2023-02-24T09:55:26.126Z,99.32
2023-02-24T09:58:34.842Z,92.82
2023-02-24T10:01:34.706Z,93.72
2023-02-24T10:04:21.118Z,95.75
2023-02-24T10:06:59.476Z,93.25
2023-02-24T10:09:35.759Z,91.95
2023-02-24T10:12:11.740Z,93.97
2023-02-24T10:14:52.908Z,94.30
2023-02-24T10:17:25.081Z,86.38
2023-02-24T10:20:13.888Z,87.35
2023-02-24T10:22:54.377Z,95.18
2023-02-24T10:25:36.733Z,98.07
2023-02-24T10:28:23.268Z,98.15
2023-02-24T10:31:11.463Z,98.00
2023-02-24T10:33:45.441Z,92.68
2023-02-24T10:36:18.690Z,92.63
2023-02-24T10:38:50.795Z,96.78
2023-02-24T10:41:22.302Z,96.07
2023-02-24T10:43:57.591Z,98.50
2023-02-24T10:46:41.035Z,97.47
2023-02-24T10:49:16.521Z,97.93
2023-02-24T10:51:53.875Z,98.85
2023-02-24T10:54:45.046Z,92.57
2023-02-24T10:57:39.455Z,94.60
2023-02-24T11:00:51.912Z,96.20
2023-02-24T11:03:37.286Z,97.05
2023-02-24T11:06:30.522Z,97.25
2023-02-24T11:09:20.377Z,87.97
2023-02-24T11:12:09.229Z,92.57
2023-02-24T11:15:09.586Z,92.38
2023-02-24T11:17:49.781Z,92.55
2023-02-24T11:20:39.225Z,94.03
2023-02-24T11:23:23.417Z,92.60
2023-02-24T11:25:58.431Z,92.35
2023-02-24T11:28:58.071Z,92.93
2023-02-24T11:31:46.155Z,92.22
2023-02-24T11:34:28.972Z,87.90
2023-02-24T11:37:11.768Z,95.28
2023-02-24T11:39:54.461Z,93.03
2023-02-24T11:42:29.920Z,89.50
2023-02-24T11:45:05.144Z,94.05
2023-02-24T11:47:44.385Z,96.68
2023-02-24T11:50:33.240Z,95.00
2023-02-24T11:53:14.905Z,98.93
2023-02-24T11:55:48.750Z,98.95
2023-02-24T11:58:26.311Z,109.30
2023-02-24T12:01:03.182Z,106.78
2023-02-24T12:03:39.902Z,104.95
2023-02-24T12:06:20.415Z,106.72
2023-02-24T12:08:56.189Z,105.60
2023-02-24T12:11:40.150Z,104.60
2023-02-24T12:14:27.772Z,105.85
2023-02-24T12:17:12.106Z,99.88
2023-02-24T12:19:54.646Z,104.05
2023-02-24T12:22:31.036Z,105.50
2023-02-24T12:25:00.479Z,102.35
2023-02-24T12:27:49.506Z,101.72
2023-02-24T12:30:48.859Z,97.35
2023-02-24T12:33:32.849Z,100.25
2023-02-24T12:36:14.156Z,103.18
2023-02-24T12:39:01.591Z,106.10
2023-02-24T12:41:45.823Z,104.85
2023-02-24T12:44:30.495Z,92.95
2023-02-24T12:47:11.739Z,97.68
2023-02-24T12:50:06.863Z,101.07
2023-02-24T12:52:48.332Z,94.13
2023-02-24T12:55:27.857Z,91.00
2023-02-24T12:58:12.690Z,101.82
2023-02-24T13:01:00.866Z,96.30
2023-02-24T13:03:47.221Z,93.82
2023-02-24T13:06:29.058Z,96.88
2023-02-24T13:09:04.936Z,95.65
2023-02-24T13:11:42.836Z,99.05
2023-02-24T13:14:23.386Z,94.05
2023-02-24T13:17:03.926Z,94.55
2023-02-24T13:19:33.924Z,96.75
2023-02-24T13:22:08.722Z,96.10
2023-02-24T13:24:39.866Z,95.20
2023-02-24T13:27:22.685Z,95.65
2023-02-24T13:29:57.383Z,92.22
2023-02-24T13:32:33.121Z,94.25
2023-02-24T13:35:07.081Z,97.97
2023-02-24T13:37:40.315Z,96.57
2023-02-24T13:40:27.801Z,92.55
2023-02-24T13:43:06.057Z,93.13
2023-02-24T13:45:37.029Z,92.72
2023-02-24T13:49:00.246Z,93.10
2023-02-24T13:51:52.024Z,91.68
2023-02-24T13:55:05.629Z,90.68
2023-02-24T13:57:48.339Z,103.70
2023-02-24T14:00:30.196Z,107.80
2023-02-24T14:03:01.063Z,107.53
2023-02-24T14:05:35.833Z,108.00
2023-02-24T14:08:07.227Z,108.15
2023-02-24T14:10:39.030Z,96.70
2023-02-24T14:13:17.802Z,108.43
2023-02-24T14:15:49.551Z,108.80
2023-02-24T14:18:21.854Z,109.88
2023-02-24T14:20:52.671Z,105.30
2023-02-24T14:23:27.506Z,105.65
2023-02-24T14:26:00.908Z,106.65
2023-02-24T14:28:34.634Z,108.68
2023-02-24T14:31:11.008Z,108.72
2023-02-24T14:33:46.022Z,109.47
2023-02-24T14:36:18.732Z,109.53
2023-02-24T14:39:00.306Z,109.63
2023-02-24T14:41:30.705Z,109.38
2023-02-24T14:44:17.955Z,102.25
2023-02-24T14:46:51.841Z,110.18
2023-02-24T14:49:26.527Z,105.15
2023-02-24T14:52:03.045Z,107.07
2023-02-24T14:54:45.990Z,109.57
2023-02-24T14:57:21.022Z,105.63
2023-02-24T14:59:54.922Z,110.00
2023-02-24T15:02:28.885Z,105.93
2023-02-24T15:04:58.573Z,106.13
2023-02-24T15:07:31.269Z,105.00
2023-02-24T15:10:03.413Z,106.78
2023-02-24T15:12:35.454Z,98.75
2023-02-24T15:15:11.290Z,85.30
2023-02-24T15:17:42.640Z,102.35
2023-02-24T15:20:30.867Z,100.68
2023-02-24T15:23:01.463Z,107.05
2023-02-24T15:25:42.736Z,105.78
2023-02-24T15:28:26.928Z,106.43
2023-02-24T15:31:11.764Z,106.78
2023-02-24T15:33:44.577Z,105.03
2023-02-24T15:36:22.130Z,97.45
2023-02-24T15:38:58.218Z,106.40
2023-02-24T15:41:27.065Z,109.32
2023-02-24T15:43:57.112Z,103.00
2023-02-24T15:46:33.720Z,103.55
2023-02-24T15:49:06.302Z,95.05
2023-02-24T15:51:39.003Z,93.22
2023-02-24T15:54:11.558Z,95.32
2023-02-24T15:56:42.794Z,97.65
2023-02-24T15:59:17.069Z,101.53
2023-02-24T16:01:45.701Z,99.15
2023-02-24T16:04:13.990Z,92.57
2023-02-24T16:06:54.462Z,85.60
2023-02-24T16:09:34.808Z,92.93
2023-02-24T16:12:07.144Z,86.47
2023-02-24T16:14:39.220Z,90.35
2023-02-24T16:17:15.633Z,91.03
2023-02-24T16:19:46.525Z,108.20
2023-02-24T16:22:18.298Z,107.22
2023-02-24T16:24:49.315Z,96.68
2023-02-24T16:27:21.256Z,95.25
2023-02-24T16:29:52.552Z,103.63
2023-02-24T16:32:23.568Z,101.32
2023-02-24T16:34:53.719Z,94.60
2023-02-24T16:37:25.447Z,100.57
2023-02-24T16:39:55.447Z,109.03
2023-02-24T16:42:25.179Z,108.75
2023-02-24T16:44:55.850Z,98.28
2023-02-24T16:47:26.440Z,92.15
2023-02-24T16:49:59.002Z,103.97
2023-02-24T16:52:28.586Z,101.10
2023-02-24T16:54:57.302Z,91.28
2023-02-24T16:57:25.998Z,99.10
2023-02-24T16:59:57.130Z,98.82
2023-02-24T17:02:26.964Z,92.03
2023-02-24T17:04:56.486Z,91.88
2023-02-24T17:07:24.826Z,98.63
2023-02-24T17:09:53.202Z,94.70
2023-02-24T17:12:22.482Z,105.10
2023-02-24T17:14:50.746Z,105.88
2023-02-24T17:17:21.605Z,111.32
2023-02-24T17:19:49.875Z,110.10
2023-02-24T17:22:19.841Z,103.55
2023-02-24T17:24:49.968Z,109.78
2023-02-24T17:27:18.165Z,99.40
2023-02-24T17:29:47.639Z,90.30
2023-02-24T17:32:15.998Z,107.05
2023-02-24T17:34:45.830Z,100.25
2023-02-24T17:37:15.278Z,109.93
2023-02-24T17:39:44.773Z,101.82
2023-02-24T17:42:13.076Z,109.60
2023-02-24T17:44:43.916Z,99.70
2023-02-24T17:47:14.908Z,103.82
2023-02-24T17:49:44.640Z,106.43
2023-02-24T17:52:15.357Z,92.97
2023-02-24T17:54:43.705Z,98.13
2023-02-24T17:57:13.457Z,89.50
2023-02-24T17:59:45.786Z,88.90
2023-02-24T18:02:18.697Z,86.30
2023-02-24T18:04:52.115Z,95.60
2023-02-24T18:09:51.041Z,96.38
2023-02-24T18:12:21.565Z,102.68
2023-02-24T18:15:07.254Z,86.85
2023-02-24T18:17:37.494Z,85.78
2023-02-24T18:20:10.150Z,95.20
2023-02-24T18:22:41.342Z,90.10
2023-02-24T18:25:12.945Z,86.87
2023-02-24T18:27:41.650Z,82.82
2023-02-24T18:30:14.207Z,90.57
2023-02-24T18:32:44.885Z,85.50
2023-02-24T18:35:15.639Z,86.13
2023-02-24T18:37:48.901Z,91.20
2023-02-24T18:42:46.669Z,90.43
2023-02-24T18:45:16.908Z,94.30
2023-02-24T18:47:46.864Z,89.32
2023-02-24T18:50:17.569Z,93.47
2023-02-24T18:52:47.867Z,83.47
2023-02-24T18:55:17.717Z,88.28
2023-02-24T18:57:48.078Z,83.47
2023-02-24T19:00:18.892Z,92.55
2023-02-24T19:02:48.332Z,79.53
2023-02-24T19:05:17.982Z,94.78
2023-02-24T19:07:49.148Z,104.40
2023-02-24T19:10:20.534Z,96.33
2023-02-24T19:12:51.888Z,97.78
2023-02-24T19:15:23.588Z,102.28
2023-02-24T19:17:53.053Z,102.45
2023-02-24T19:20:21.844Z,102.65
2023-02-24T19:22:53.057Z,98.50
2023-02-24T19:25:22.490Z,98.13
2023-02-24T19:27:53.595Z,100.07
2023-02-24T19:30:23.286Z,101.93
2023-02-24T19:32:51.911Z,91.45
2023-02-24T19:35:21.131Z,97.05
2023-02-24T19:37:49.661Z,94.97
2023-02-24T19:40:22.342Z,98.05
2023-02-24T19:42:51.902Z,93.75
2023-02-24T19:45:21.783Z,92.10
2023-02-24T19:47:51.643Z,102.25
2023-02-24T19:50:22.119Z,98.13
2023-02-24T19:52:51.566Z,85.63
2023-02-24T19:55:22.714Z,84.28
2023-02-24T19:57:54.709Z,90.43
2023-02-24T20:00:25.018Z,97.97
2023-02-24T20:02:54.893Z,99.28
2023-02-24T20:05:24.860Z,102.95
2023-02-24T20:07:54.885Z,95.83
2023-02-24T20:10:26.196Z,106.35
2023-02-24T20:12:57.991Z,96.50
2023-02-24T20:15:29.130Z,92.35
2023-02-24T20:17:59.140Z,91.35
2023-02-24T20:20:30.423Z,81.83
2023-02-24T20:23:00.091Z,91.60
2023-02-24T20:25:29.733Z,94.03
2023-02-24T20:27:58.028Z,89.38
2023-02-24T20:30:27.934Z,89.03
2023-02-24T20:33:00.755Z,89.88
2023-02-24T20:35:29.373Z,83.03
2023-02-24T20:38:01.455Z,92.85
2023-02-24T20:40:32.730Z,89.88
2023-02-24T20:43:04.496Z,90.35
2023-02-24T20:45:33.554Z,100.53
2023-02-24T20:48:04.611Z,94.20
2023-02-24T20:50:33.121Z,99.68
2023-02-24T20:53:03.418Z,98.55
2023-02-24T20:55:33.317Z,98.60
2023-02-24T20:58:04.615Z,93.80
2023-02-24T21:00:35.044Z,95.17
2023-02-24T21:03:08.929Z,104.97
2023-02-24T21:05:37.129Z,105.53
2023-02-24T21:08:07.141Z,104.68
2023-02-24T21:10:38.279Z,94.88
2023-02-24T21:13:08.376Z,89.47
2023-02-24T21:15:38.359Z,90.15
2023-02-24T21:18:08.692Z,95.88
2023-02-24T21:20:38.306Z,93.07
2023-02-24T21:23:10.775Z,88.22
2023-02-24T21:25:40.731Z,89.67
2023-02-24T21:28:12.733Z,101.63
2023-02-24T21:30:43.822Z,92.53
2023-02-24T21:33:13.719Z,97.30
2023-02-24T21:35:42.355Z,101.00
2023-02-24T21:38:12.933Z,103.97
2023-02-24T21:40:45.156Z,97.68
2023-02-24T21:43:14.978Z,106.28
2023-02-24T21:45:45.337Z,101.57
2023-02-24T21:48:15.030Z,98.70
2023-02-24T21:50:43.272Z,99.07
2023-02-24T21:53:13.308Z,101.35
2023-02-24T21:55:44.621Z,105.82
2023-02-24T21:58:13.191Z,100.85
2023-02-24T22:00:43.341Z,109.25
2023-02-24T22:03:13.236Z,103.93
2023-02-24T22:05:53.100Z,99.22
2023-02-24T22:08:22.520Z,101.28
2023-02-24T22:11:00.257Z,98.68
2023-02-24T22:13:31.542Z,94.70
2023-02-24T22:16:02.143Z,98.63
2023-02-24T22:18:32.113Z,107.28
2023-02-24T22:21:05.753Z,95.32
2023-02-24T22:23:35.271Z,104.53
2023-02-24T22:26:09.458Z,106.65
2023-02-24T22:28:40.587Z,111.78
2023-02-24T22:31:14.326Z,110.53
2023-02-24T22:33:44.927Z,110.05
2023-02-24T22:36:18.017Z,111.40
2023-02-24T22:38:47.025Z,112.25
2023-02-24T22:41:20.791Z,90.65
2023-02-24T22:43:50.929Z,89.35
2023-02-24T22:46:23.303Z,87.72
2023-02-24T22:48:53.135Z,85.20
2023-02-24T22:51:24.250Z,94.05
2023-02-24T22:53:54.910Z,93.93
2023-02-24T22:56:29.153Z,98.80
2023-02-24T22:59:00.583Z,93.78
2023-02-24T23:01:32.469Z,97.03
2023-02-24T23:04:02.166Z,91.00
2023-02-24T23:06:32.906Z,85.25
2023-02-24T23:09:02.363Z,99.38
2023-02-24T23:11:35.211Z,98.88
2023-02-24T23:14:07.117Z,91.72
2023-02-24T23:16:39.788Z,85.70
2023-02-24T23:19:12.935Z,89.30
2023-02-24T23:21:46.365Z,88.32
2023-02-24T23:26:49.868Z,93.38
2023-02-24T23:29:19.426Z,95.15
2023-02-24T23:31:50.837Z,104.20
2023-02-24T23:34:20.544Z,95.72
2023-02-24T23:36:49.156Z,106.75
2023-02-24T23:39:23.689Z,101.32
2023-02-24T23:41:57.464Z,102.53
2023-02-24T23:44:26.668Z,109.65
2023-02-24T23:46:59.386Z,109.45
2023-02-24T23:49:42.521Z,109.28
2023-02-24T23:52:16.843Z,108.20
2023-02-24T23:54:50.004Z,109.25
2023-02-24T23:57:22.078Z,101.45
2023-02-24T23:59:50.322Z,102.22
